Brookfield, Wisconsin
Current Conditions -  °F | °C
As of 9:35 PM on Monday 20 Oct 2014 (Local Time) from KUES Reporting Station
Overcast Overcast  
Wind Chill:   Ceiling: 5000
Heat Index:   Visibility: 10mi
Dew Point:   Wind: 6mph
Humidity: 81%   Direction: 330°NNW
Pressure: 30.01"   Gusts: NA
Location:  43.06°N, 88.13°W
Report Text: KUES 210235Z AUTO 33005KT 10SM OVC050 08/05 A3001 RMK AO2
Loading
Personal Weather Stations






























Interactive Weather Map
Tropical Storm Tracking
New forecast layout! Learn more

10-Day Weather Forecast

Advertisements
Track Severe Weather on mobile